createdAt,value
2023-07-24T00:04:28.551Z,97574.97
2023-07-24T00:09:30.357Z,97563.06
2023-07-24T00:14:32.069Z,97557.75
2023-07-24T00:19:33.778Z,97559.06
2023-07-24T00:24:35.664Z,97552.44
2023-07-24T00:29:37.315Z,97543.97
2023-07-24T00:34:40.240Z,97528.34
2023-07-24T00:39:41.962Z,97534.69
2023-07-24T00:44:43.749Z,97529.41
2023-07-24T00:49:45.877Z,97529.16
2023-07-24T00:54:48.248Z,97540.00
2023-07-24T00:59:50.514Z,97539.19
2023-07-24T01:04:52.905Z,97529.66
2023-07-24T01:09:55.467Z,97525.69
2023-07-24T01:15:05.474Z,97516.41
2023-07-24T01:20:09.893Z,97521.97
2023-07-24T01:25:12.558Z,97523.03
2023-07-24T01:30:19.133Z,97520.38
2023-07-24T01:35:22.901Z,97509.25
2023-07-24T01:40:25.249Z,97510.56
2023-07-24T01:45:27.203Z,97512.69
2023-07-24T01:50:28.925Z,97509.50
2023-07-24T01:55:30.616Z,97492.31
2023-07-24T02:00:32.338Z,97492.56
2023-07-24T02:05:33.980Z,97493.09
2023-07-24T02:10:38.086Z,97491.22
2023-07-24T02:15:41.105Z,97481.97
2023-07-24T02:20:42.864Z,97485.94
2023-07-24T02:25:44.660Z,97486.19
2023-07-24T02:30:47.690Z,97491.75
2023-07-24T02:35:50.701Z,97490.94
2023-07-24T02:40:52.364Z,97481.16
2023-07-24T02:45:54.093Z,97477.47
2023-07-24T02:50:58.670Z,97469.25
2023-07-24T02:56:02.227Z,97467.16
2023-07-24T03:01:05.824Z,97469.53
2023-07-24T03:06:07.772Z,97470.34
2023-07-24T03:11:09.525Z,97475.38
2023-07-24T03:16:12.271Z,97480.91
2023-07-24T03:21:14.357Z,97472.97
2023-07-24T03:26:17.088Z,97467.44
2023-07-24T03:31:18.967Z,97464.25
2023-07-24T03:36:24.395Z,97449.97
2023-07-24T03:41:27.484Z,97444.69
2023-07-24T03:46:30.744Z,97448.91
2023-07-24T03:51:34.448Z,97449.44
2023-07-24T03:56:36.452Z,97437.81
2023-07-24T04:01:38.250Z,97439.13
2023-07-24T04:06:39.908Z,97429.88
2023-07-24T04:11:45.173Z,97422.72
2023-07-24T04:16:47.082Z,97421.41
2023-07-24T04:21:48.733Z,97429.34
2023-07-24T04:26:50.350Z,97415.84
2023-07-24T04:31:52.003Z,97409.50
2023-07-24T04:36:53.667Z,97408.44
2023-07-24T04:41:55.347Z,97408.97
2023-07-24T04:47:00.396Z,97414.00
2023-07-24T04:52:02.108Z,97408.97
2023-07-24T04:57:04.196Z,97416.41
2023-07-24T05:02:05.978Z,97405.53
2023-07-24T05:07:07.704Z,97399.47
2023-07-24T05:12:09.503Z,97395.22
2023-07-24T05:17:11.257Z,97395.75
2023-07-24T05:22:12.982Z,97384.38
2023-07-24T05:27:17.260Z,97385.16
2023-07-24T05:32:19.020Z,97389.66
2023-07-24T05:37:20.754Z,97398.13
2023-07-24T05:42:22.476Z,97388.06
2023-07-24T05:47:24.259Z,97390.97
2023-07-24T05:52:25.992Z,97390.44
2023-07-24T05:57:27.884Z,97392.03
2023-07-24T06:02:29.640Z,97394.91
2023-07-24T06:07:31.353Z,97394.38
2023-07-24T06:12:33.068Z,97380.56
2023-07-24T06:17:35.757Z,97381.59
2023-07-24T06:22:37.470Z,97380.00
2023-07-24T06:27:42.255Z,97379.72
2023-07-24T06:32:44.884Z,97380.00
2023-07-24T06:37:46.809Z,97382.13
2023-07-24T06:42:48.595Z,97395.09
2023-07-24T06:47:50.360Z,97388.47
2023-07-24T06:52:53.356Z,97385.81
2023-07-24T06:57:55.021Z,97377.56
2023-07-24T07:02:56.724Z,97381.25
2023-07-24T07:07:58.445Z,97367.09
2023-07-24T07:13:00.249Z,97374.47
2023-07-24T07:18:02.086Z,97379.19
2023-07-24T07:23:03.924Z,97372.22
2023-07-24T07:28:05.662Z,97369.53
2023-07-24T07:33:07.758Z,97373.53
2023-07-24T07:38:09.604Z,97367.97
2023-07-24T07:43:11.303Z,97350.97
2023-07-24T07:48:12.921Z,97344.03
2023-07-24T07:53:14.572Z,97320.63
2023-07-24T07:58:16.280Z,97326.38
2023-07-24T08:03:18.070Z,97315.22
2023-07-24T08:08:20.053Z,97319.41
2023-07-24T08:13:21.873Z,97311.84
2023-07-24T08:18:23.663Z,97302.53
2023-07-24T08:23:25.410Z,97294.19
2023-07-24T08:28:27.076Z,97290.09
2023-07-24T08:33:29.328Z,97280.44
2023-07-24T08:38:31.196Z,97274.28
2023-07-24T08:43:33.536Z,97248.88
2023-07-24T08:48:42.324Z,97245.66
2023-07-24T08:53:44.633Z,97242.81
2023-07-24T08:58:46.537Z,97242.53
2023-07-24T09:03:49.629Z,97243.41
2023-07-24T09:08:54.772Z,97247.16
2023-07-24T09:13:56.535Z,97244.78
2023-07-24T09:19:10.486Z,97265.50
2023-07-24T09:24:14.155Z,97265.00
2023-07-24T09:29:15.963Z,97257.78
2023-07-24T09:34:18.420Z,97270.81
2023-07-24T09:39:29.329Z,97264.34
2023-07-24T09:44:32.356Z,97265.53
2023-07-24T09:49:34.913Z,97266.69
2023-07-24T09:54:42.441Z,97260.56
2023-07-24T09:59:44.374Z,97265.69
2023-07-24T10:04:47.812Z,97256.31
2023-07-24T10:09:51.569Z,97250.72
2023-07-24T10:14:53.712Z,97258.91
2023-07-24T10:20:04.207Z,97249.25
2023-07-24T10:25:07.248Z,97252.22
2023-07-24T10:30:19.211Z,97267.75
2023-07-24T10:35:37.364Z,97271.81
2023-07-24T10:40:40.923Z,97279.09
2023-07-24T10:45:42.742Z,97255.97
2023-07-24T10:50:45.622Z,97264.81
2023-07-24T10:55:54.354Z,97253.09
2023-07-24T11:00:57.601Z,97264.53
2023-07-24T11:06:00.112Z,97264.97
2023-07-24T11:11:02.993Z,97242.97
2023-07-24T11:16:06.429Z,97234.47
2023-07-24T11:21:10.000Z,97220.97
2023-07-24T11:26:11.747Z,97201.19
2023-07-24T11:31:13.624Z,97191.19
2023-07-24T11:36:15.709Z,97179.38
2023-07-24T11:41:21.799Z,97180.00
2023-07-24T11:46:24.953Z,97166.00
2023-07-24T11:51:29.489Z,97156.16
2023-07-24T11:56:32.555Z,97158.22
2023-07-24T12:01:34.494Z,97166.78
2023-07-24T12:06:37.154Z,97163.22
2023-07-24T12:11:49.050Z,97173.47
2023-07-24T12:16:51.148Z,97166.44
2023-07-24T12:21:52.969Z,97165.84
2023-07-24T12:26:54.742Z,97167.28
2023-07-24T12:31:56.475Z,97179.44
2023-07-24T12:36:58.268Z,97183.31
2023-07-24T12:41:59.939Z,97179.22
2023-07-24T12:47:01.619Z,97202.31
2023-07-24T12:52:03.760Z,97208.41
2023-07-24T12:57:05.664Z,97218.06
2023-07-24T13:02:07.747Z,97213.75
2023-07-24T13:07:09.505Z,97215.09
2023-07-24T13:12:11.789Z,97217.44
2023-07-24T13:17:13.607Z,97187.28
2023-07-24T13:22:15.346Z,97169.44
2023-07-24T13:27:17.046Z,97168.19
2023-07-24T13:32:18.886Z,97156.84
2023-07-24T13:37:20.806Z,97149.81
2023-07-24T13:42:22.547Z,97135.59
2023-07-24T13:47:24.250Z,97114.91
2023-07-24T13:52:26.153Z,97099.22
2023-07-24T13:57:28.022Z,97076.91
2023-07-24T14:07:47.458Z,97046.75
2023-07-24T14:12:49.265Z,97045.88
2023-07-24T14:17:51.340Z,97038.91
2023-07-24T14:22:53.043Z,97029.09
2023-07-24T14:27:55.307Z,97022.31
2023-07-24T14:32:57.308Z,97017.50
2023-07-24T14:37:59.130Z,97020.06
2023-07-24T14:43:01.055Z,96999.56
2023-07-24T14:48:02.815Z,96993.06
2023-07-24T14:53:04.639Z,96962.44
2023-07-24T14:58:06.328Z,96945.81
2023-07-24T15:03:08.425Z,96945.59
2023-07-24T15:08:10.187Z,96953.50
2023-07-24T15:13:11.913Z,96961.88
2023-07-24T15:18:14.184Z,96952.41
2023-07-24T15:23:16.178Z,96955.25
2023-07-24T15:28:18.140Z,96933.78
2023-07-24T15:33:20.079Z,96956.63
2023-07-24T15:38:22.955Z,96946.69
2023-07-24T15:43:26.197Z,96939.59
2023-07-24T15:48:28.101Z,96935.38
2023-07-24T15:53:30.098Z,96933.13
2023-07-24T15:58:31.960Z,96916.97
2023-07-24T16:03:33.852Z,96904.28
2023-07-24T16:08:35.921Z,96902.22
2023-07-24T16:13:40.560Z,96882.03
2023-07-24T16:18:42.485Z,96891.09
2023-07-24T16:23:44.287Z,96883.59
2023-07-24T16:28:46.359Z,96884.28
2023-07-24T16:33:49.986Z,96895.41
2023-07-24T16:38:52.190Z,96902.50
2023-07-24T16:43:54.243Z,96897.16
2023-07-24T16:48:56.090Z,96899.84
2023-07-24T16:53:57.854Z,96894.81
2023-07-24T16:58:59.936Z,96885.06
2023-07-24T17:04:01.785Z,96889.41
2023-07-24T17:09:03.869Z,96892.66
2023-07-24T17:14:05.640Z,96887.94
2023-07-24T17:19:07.461Z,96870.41
2023-07-24T17:24:09.494Z,96872.53
2023-07-24T17:29:11.467Z,96872.53
2023-07-24T17:34:13.317Z,96876.88
2023-07-24T17:39:15.193Z,96864.28
2023-07-24T17:44:17.105Z,96862.00
2023-07-24T17:49:18.941Z,96867.72
2023-07-24T17:54:21.040Z,96857.22
2023-07-24T17:59:22.869Z,96849.34
2023-07-24T18:04:24.908Z,96855.06
2023-07-24T18:09:26.677Z,96857.31
2023-07-24T18:14:28.718Z,96864.09
2023-07-24T18:19:30.681Z,96882.28
2023-07-24T18:24:32.502Z,96870.16
2023-07-24T18:29:34.728Z,96860.69
2023-07-24T18:34:38.037Z,96879.38
2023-07-24T18:39:40.170Z,96873.06
2023-07-24T18:44:42.255Z,96882.41
2023-07-24T18:49:44.837Z,96874.22
2023-07-24T18:54:47.067Z,96870.56
2023-07-24T18:59:48.996Z,96866.94
2023-07-24T19:04:50.725Z,96885.88
2023-07-24T19:09:52.463Z,96902.69
2023-07-24T19:14:54.819Z,96959.06
2023-07-24T19:19:56.621Z,96981.13
2023-07-24T19:24:58.354Z,96982.00
2023-07-24T19:30:03.596Z,96985.44
2023-07-24T19:35:05.532Z,96990.41
2023-07-24T19:40:07.758Z,97014.44
2023-07-24T19:45:09.476Z,97029.16
2023-07-24T19:50:11.213Z,97020.53
2023-07-24T19:55:13.029Z,97021.41
2023-07-24T20:00:15.195Z,97023.59
2023-07-24T20:05:16.946Z,97038.19
2023-07-24T20:10:18.819Z,97024.72
2023-07-24T20:15:20.582Z,97020.25
2023-07-24T20:20:22.255Z,97033.22
2023-07-24T20:25:23.936Z,97034.56
2023-07-24T20:30:27.152Z,97024.00
2023-07-24T20:35:32.301Z,97043.59
2023-07-24T20:40:34.482Z,97062.16
2023-07-24T20:45:36.223Z,97080.69
2023-07-24T20:50:39.046Z,97065.91
2023-07-24T20:55:40.734Z,97094.47
2023-07-24T21:00:42.468Z,97100.84
2023-07-24T21:05:44.157Z,97097.44
2023-07-24T21:10:45.893Z,97111.94
2023-07-24T21:15:47.731Z,97127.75
2023-07-24T21:20:49.511Z,97121.13
2023-07-24T21:25:55.453Z,97094.97
2023-07-24T21:30:57.194Z,97076.19
2023-07-24T21:36:02.348Z,97075.41
2023-07-24T21:41:04.069Z,97102.84
2023-07-24T21:46:05.955Z,97098.06
2023-07-24T21:51:10.693Z,97095.16
2023-07-24T21:56:14.000Z,97116.53
2023-07-24T22:01:17.834Z,97109.13
2023-07-24T22:06:19.600Z,97102.25
2023-07-24T22:11:21.580Z,97101.16
2023-07-24T22:16:23.285Z,97098.50
2023-07-24T22:21:25.046Z,97090.56
2023-07-24T22:26:26.743Z,97090.28
2023-07-24T22:31:28.409Z,97089.22
2023-07-24T22:36:30.703Z,97081.28
2023-07-24T22:41:32.577Z,97072.06
2023-07-24T22:46:36.867Z,97075.19
2023-07-24T22:51:38.625Z,97078.88
2023-07-24T22:56:41.094Z,97085.22
2023-07-24T23:01:42.785Z,97092.84
2023-07-24T23:06:45.190Z,97115.50
2023-07-24T23:11:46.813Z,97122.34
2023-07-24T23:16:48.567Z,97119.44
2023-07-24T23:21:50.339Z,97113.63
2023-07-24T23:26:52.012Z,97125.22
2023-07-24T23:31:56.974Z,97133.63
2023-07-24T23:36:58.636Z,97136.28
2023-07-24T23:42:03.383Z,97149.44
2023-07-24T23:47:05.140Z,97149.44
2023-07-24T23:52:07.085Z,97139.97
2023-07-24T23:57:11.837Z,97154.19
